Time;durP1;ratioP1;P1;durP2;ratioP2;P2;SDS_P1;SDS_P2;PMS_P1;PMS_P2;Temp;Humidity;BMP_temperature;BMP_pressure;BME280_temperature;BME280_humidity;BME280_pressure;Samples;Min_cycle;Max_cycle;Signal;HPM_P1;HPM_P2
2022/04/17 00:02:09;;;;;;;17.67;12.70;;;;;;;5.91;52.09;102083.69;8605685;33;20407;-74
2022/04/17 00:07:12;;;;;;;18.80;12.43;;;;;;;5.83;52.37;102064.44;8605439;33;20143;-73
2022/04/17 00:12:15;;;;;;;19.70;12.40;;;;;;;5.76;52.63;102070.00;8603716;33;20190;-74
2022/04/17 00:17:20;;;;;;;16.95;11.65;;;;;;;5.69;52.90;102061.38;8600374;33;20979;-74
2022/04/17 00:22:24;;;;;;;20.85;12.45;;;;;;;5.62;53.15;102066.06;8575741;33;20416;-73
2022/04/17 00:27:27;;;;;;;16.35;12.70;;;;;;;5.55;53.25;102053.84;8598207;33;20140;-73
2022/04/17 00:32:32;;;;;;;14.63;11.45;;;;;;;5.50;53.10;102053.97;8575213;33;20474;-74
2022/04/17 00:37:36;;;;;;;16.70;11.75;;;;;;;5.38;53.90;102034.88;8597944;33;20189;-74
2022/04/17 00:42:41;;;;;;;15.30;10.45;;;;;;;5.31;53.79;102039.50;8599183;33;20504;-74
2022/04/17 00:47:45;;;;;;;15.55;11.65;;;;;;;5.24;54.07;102030.00;8601636;33;20321;-74
2022/04/17 00:52:48;;;;;;;17.45;12.27;;;;;;;5.13;54.30;102021.44;8602785;33;20936;-74
2022/04/17 00:57:51;;;;;;;20.02;12.43;;;;;;;5.07;54.29;102014.53;8600647;33;21318;-74
2022/04/17 01:02:56;;;;;;;20.48;13.13;;;;;;;5.12;54.16;102020.59;8597453;33;20417;-74
2022/04/17 01:08:00;;;;;;;18.15;12.38;;;;;;;5.17;54.15;102020.44;8598610;33;20448;-73
2022/04/17 01:13:04;;;;;;;20.38;13.45;;;;;;;5.13;53.99;102024.13;8601913;33;20376;-74
2022/04/17 01:18:10;;;;;;;20.50;13.60;;;;;;;5.06;54.40;102023.47;8600888;33;20436;-73
2022/04/17 01:28:35;;;;;;;22.58;13.25;;;;;;;4.74;55.44;102009.31;8602344;33;20491;-74
2022/04/17 01:33:38;;;;;;;20.05;14.10;;;;;;;4.72;55.50;102011.19;8603768;33;20198;-73
2022/04/17 01:38:42;;;;;;;24.42;14.77;;;;;;;4.57;56.20;102007.16;8600410;33;20626;-73
2022/04/17 01:43:45;;;;;;;19.90;14.20;;;;;;;4.57;56.46;102004.50;8574623;33;20558;-74
2022/04/17 01:48:48;;;;;;;20.67;13.82;;;;;;;4.53;56.46;101999.34;8599264;33;20537;-73
2022/04/17 01:53:53;;;;;;;17.83;11.98;;;;;;;4.57;55.93;101996.53;8600381;33;21326;-73
2022/04/17 01:58:56;;;;;;;16.45;11.43;;;;;;;4.66;55.16;101992.69;8601484;33;20430;-74
2022/04/17 02:03:59;;;;;;;17.27;10.88;;;;;;;4.76;54.69;101988.84;8600023;33;20507;-73
2022/04/17 02:09:07;;;;;;;14.75;9.77;;;;;;;4.77;54.11;101987.94;8602883;33;20919;-73
2022/04/17 02:14:11;;;;;;;13.65;10.30;;;;;;;4.80;53.86;101986.94;8603331;33;20630;-74
2022/04/17 02:19:14;;;;;;;15.43;10.15;;;;;;;4.81;53.98;101983.38;8602687;33;20230;-73
2022/04/17 02:24:18;;;;;;;15.38;9.75;;;;;;;4.93;53.45;101977.66;8599573;33;20567;-73
2022/04/17 02:29:21;;;;;;;18.45;11.27;;;;;;;4.84;53.57;101973.50;8596595;33;20680;-74
2022/04/17 02:34:24;;;;;;;15.02;10.50;;;;;;;4.71;53.92;101972.13;8589829;33;20175;-73
2022/04/17 02:39:29;;;;;;;13.73;9.55;;;;;;;4.65;54.22;101971.47;8588910;33;20213;-74
2022/04/17 02:44:32;;;;;;;14.27;10.68;;;;;;;4.55;54.46;101966.44;8589282;33;20139;-73
2022/04/17 02:49:35;;;;;;;13.77;11.07;;;;;;;4.40;54.96;101957.13;8587644;33;20179;-73
2022/04/17 02:54:40;;;;;;;15.18;10.65;;;;;;;4.17;56.34;101962.25;8587709;33;20519;-74
2022/04/17 02:59:43;;;;;;;16.38;11.65;;;;;;;3.87;57.58;101964.88;8588627;33;20514;-73
2022/04/17 03:10:08;;;;;;;21.58;14.85;;;;;;;3.35;60.42;101945.03;8598077;33;20280;-73
2022/04/17 03:15:12;;;;;;;23.65;15.35;;;;;;;3.24;61.23;101937.34;8601349;33;20463;-73
2022/04/17 03:20:15;;;;;;;23.50;15.63;;;;;;;3.27;61.23;101931.06;8607943;33;20482;-73
2022/04/17 03:25:20;;;;;;;24.90;15.68;;;;;;;3.28;61.04;101911.56;8618482;33;20432;-74
2022/04/17 03:30:23;;;;;;;22.70;15.80;;;;;;;3.19;61.22;101915.31;8618671;33;20183;-73
2022/04/17 03:35:26;;;;;;;22.05;15.57;;;;;;;3.27;60.82;101925.75;8620547;33;20937;-73
2022/04/17 03:40:31;;;;;;;19.00;13.93;;;;;;;3.23;60.56;101918.75;8612198;33;20406;-73
2022/04/17 03:45:34;;;;;;;20.50;13.75;;;;;;;3.13;60.79;101923.47;8606537;33;20186;-73
2022/04/17 03:50:37;;;;;;;22.90;14.65;;;;;;;3.16;61.07;101917.19;8606002;33;20510;-73
2022/04/17 03:55:42;;;;;;;21.52;14.45;;;;;;;3.19;60.62;101917.97;8599371;33;20446;-73
2022/04/17 04:00:47;;;;;;;20.02;13.98;;;;;;;3.20;60.30;101917.06;8599629;33;20178;-74
2022/04/17 04:05:50;;;;;;;29.20;14.38;;;;;;;3.16;60.56;101925.16;8599410;33;20143;-73
2022/04/17 04:10:54;;;;;;;21.48;14.43;;;;;;;3.08;60.85;101932.44;8603184;33;20598;-74
2022/04/17 04:15:57;;;;;;;19.23;14.10;;;;;;;2.95;60.97;101921.25;8598885;33;20425;-73
2022/04/17 04:21:00;;;;;;;32.53;19.98;;;;;;;2.88;61.32;101917.00;8598760;33;20420;-73
2022/04/17 04:26:05;;;;;;;23.98;15.40;;;;;;;2.64;62.09;101922.00;8597074;33;20419;-73
2022/04/17 04:31:12;;;;;;;22.67;15.68;;;;;;;2.57;62.84;101921.25;8597715;33;20500;-74
2022/04/17 04:36:15;;;;;;;25.02;15.38;;;;;;;2.57;62.98;101915.94;8597749;33;20963;-75
2022/04/17 04:41:19;;;;;;;22.05;14.98;;;;;;;2.38;63.36;101915.47;8597649;33;21026;-74
2022/04/17 04:46:22;;;;;;;24.65;15.75;;;;;;;2.44;63.45;101910.94;8592617;33;21223;-74
2022/04/17 04:51:27;;;;;;;21.98;15.63;;;;;;;2.56;63.01;101906.25;8588901;33;20997;-74
2022/04/17 04:56:33;;;;;;;26.00;17.02;;;;;;;2.58;62.87;101907.09;8589544;33;21266;-74
2022/04/17 05:01:37;;;;;;;23.50;15.43;;;;;;;2.61;62.73;101916.78;8598624;33;20500;-74
2022/04/17 05:06:40;;;;;;;22.70;15.93;;;;;;;2.66;62.89;101908.69;8602795;33;20185;-75
2022/04/17 05:11:46;;;;;;;21.67;15.27;;;;;;;2.70;63.06;101902.41;8609985;33;20136;-75
2022/04/17 05:16:49;;;;;;;22.40;15.07;;;;;;;2.84;63.04;101911.75;8599933;33;20179;-74
2022/04/17 05:21:57;;;;;;;23.83;15.02;;;;;;;2.98;63.01;101908.75;8597105;33;20495;-74
2022/04/17 05:27:01;;;;;;;26.55;15.35;;;;;;;3.10;62.20;101910.25;8595908;33;20147;-74
2022/04/17 05:32:05;;;;;;;23.58;14.85;;;;;;;3.22;62.17;101907.28;8595887;33;20438;-74
2022/04/17 05:37:08;;;;;;;21.02;14.15;;;;;;;3.39;61.44;101916.59;8595629;33;20438;-74
2022/04/17 05:42:14;;;;;;;18.77;12.50;;;;;;;3.63;60.79;101915.06;8596490;33;20516;-74
2022/04/17 05:47:20;;;;;;;17.75;13.20;;;;;;;3.84;60.76;101916.22;8595919;33;20432;-75
2022/04/17 05:52:23;;;;;;;18.92;13.23;;;;;;;4.02;61.27;101921.00;8594822;33;20496;-75
2022/04/17 05:57:28;;;;;;;21.00;12.45;;;;;;;4.25;60.59;101932.75;8596800;33;20425;-75
2022/04/17 06:02:31;;;;;;;18.67;10.77;;;;;;;4.48;59.89;101940.91;8600267;33;20645;-74
2022/04/17 06:07:34;;;;;;;16.77;11.13;;;;;;;4.71;58.80;101936.66;8602232;33;20248;-74
2022/04/17 06:12:39;;;;;;;12.85;9.07;;;;;;;4.90;57.06;101936.94;8603561;33;20143;-75
2022/04/17 06:17:44;;;;;;;14.50;9.50;;;;;;;5.21;56.99;101924.38;8601993;33;20146;-74
2022/04/17 06:22:47;;;;;;;14.27;10.50;;;;;;;5.46;56.65;101924.41;8602091;33;20186;-74
2022/04/17 06:27:51;;;;;;;9.65;6.07;;;;;;;5.87;56.82;101916.72;8601020;33;20240;-74
2022/04/17 06:32:59;;;;;;;11.35;8.75;;;;;;;6.31;56.37;101910.63;8601322;33;22182;-74
2022/04/17 06:38:05;;;;;;;11.88;8.48;;;;;;;6.59;54.38;101910.41;8601167;33;20348;-75
2022/04/17 06:43:10;;;;;;;11.17;8.80;;;;;;;6.92;54.31;101902.84;8572181;33;20562;-75
2022/04/17 06:48:15;;;;;;;10.18;7.93;;;;;;;7.32;50.99;101898.44;8596529;33;20135;-74
2022/04/17 06:53:18;;;;;;;10.40;7.57;;;;;;;7.25;49.65;101902.34;8595325;33;20163;-74
2022/04/17 06:58:22;;;;;;;12.70;8.30;;;;;;;7.42;48.48;101896.25;8597993;33;20880;-74
2022/04/17 07:03:25;;;;;;;11.55;7.95;;;;;;;7.44;48.87;101887.22;8598556;33;20490;-74
2022/04/17 07:08:29;;;;;;;9.77;7.75;;;;;;;7.81;50.05;101880.22;8598874;33;20409;-75
2022/04/17 07:13:33;;;;;;;11.63;7.80;;;;;;;8.11;48.37;101882.41;8597349;33;20147;-74
2022/04/17 07:18:37;;;;;;;10.32;7.72;;;;;;;8.26;48.27;101881.72;8594467;33;20442;-74
2022/04/17 07:23:40;;;;;;;10.63;8.55;;;;;;;8.54;48.09;101878.59;8596530;33;20414;-74
2022/04/17 07:28:46;;;;;;;10.35;7.72;;;;;;;9.03;47.19;101884.19;8569973;33;20425;-74
2022/04/17 07:33:49;;;;;;;8.82;7.90;;;;;;;9.28;46.78;101873.06;8595486;33;20147;-74
2022/04/17 07:38:52;;;;;;;10.00;7.82;;;;;;;9.70;46.88;101870.88;8594503;33;20228;-73
2022/04/17 07:43:56;;;;;;;10.63;7.95;;;;;;;9.93;45.61;101865.16;8596289;33;20200;-74
2022/04/17 07:48:59;;;;;;;10.45;7.65;;;;;;;10.35;45.77;101862.84;8596382;33;20520;-75
2022/04/17 07:54:03;;;;;;;12.65;8.10;;;;;;;10.78;44.62;101852.31;8595763;33;21056;-74
2022/04/17 07:59:08;;;;;;;9.52;7.35;;;;;;;11.02;43.60;101855.34;8604109;33;20508;-75
2022/04/17 08:04:11;;;;;;;12.88;7.78;;;;;;;11.12;43.27;101863.75;8603654;33;21151;-73
2022/04/17 08:09:17;;;;;;;9.48;7.13;;;;;;;11.56;43.05;101853.00;8601246;33;20182;-73
2022/04/17 08:14:22;;;;;;;8.48;7.32;;;;;;;11.53;41.17;101855.88;8600968;33;20434;-74
2022/04/17 08:19:25;;;;;;;8.07;6.20;;;;;;;11.55;40.37;101853.13;8596790;33;20176;-74
2022/04/17 08:24:30;;;;;;;10.48;7.47;;;;;;;12.14;40.96;101852.00;8596376;33;20568;-74
2022/04/17 08:29:34;;;;;;;10.13;7.60;;;;;;;12.28;41.25;101847.53;8603108;33;21966;-74
2022/04/17 08:34:37;;;;;;;9.93;6.03;;;;;;;12.54;39.82;101844.06;8615121;33;20454;-74
2022/04/17 08:39:40;;;;;;;9.35;6.65;;;;;;;12.45;39.23;101841.09;8605080;33;20421;-74
2022/04/17 08:44:45;;;;;;;6.80;5.32;;;;;;;12.60;38.73;101832.00;8601381;33;20407;-74
2022/04/17 08:49:48;;;;;;;5.90;5.13;;;;;;;12.74;37.00;101841.84;8598893;33;20278;-74
2022/04/17 08:54:53;;;;;;;4.90;3.80;;;;;;;13.01;35.95;101831.03;8597310;33;20491;-74
2022/04/17 08:59:58;;;;;;;3.33;2.97;;;;;;;12.94;35.04;101825.16;8597340;33;20415;-75
2022/04/17 09:05:05;;;;;;;3.85;3.15;;;;;;;13.40;35.39;101823.84;8602485;33;20174;-74
2022/04/17 09:10:09;;;;;;;4.20;3.53;;;;;;;14.26;34.25;101810.44;8602739;33;20344;-74
2022/04/17 09:15:15;;;;;;;5.38;3.78;;;;;;;14.11;33.86;101806.13;8602566;33;20143;-74
2022/04/17 09:20:22;;;;;;;4.07;2.92;;;;;;;13.68;32.65;101791.22;8601473;33;20208;-75
2022/04/17 09:25:26;;;;;;;5.55;3.95;;;;;;;13.92;34.39;101795.81;8603494;33;20425;-75
2022/04/17 09:30:33;;;;;;;6.43;4.80;;;;;;;13.96;34.62;101788.34;8602791;33;20495;-75
2022/04/17 09:35:36;;;;;;;6.05;4.00;;;;;;;14.42;33.84;101784.97;8604227;33;20188;-74
2022/04/17 09:40:39;;;;;;;5.57;3.83;;;;;;;14.63;33.84;101780.63;8604659;33;20422;-75
2022/04/17 09:46:00;;;;;;;4.88;3.63;;;;;;;14.67;32.78;101767.72;8614936;33;20412;-75
2022/04/17 09:51:23;;;;;;;4.03;3.08;;;;;;;14.77;33.10;101757.94;8618350;33;20135;-75
2022/04/17 09:56:34;;;;;;;3.00;2.80;;;;;;;15.19;31.31;101752.84;8616825;33;20488;-75
2022/04/17 10:01:38;;;;;;;7.03;2.58;;;;;;;15.57;29.92;101744.41;8617363;33;21065;-75
2022/04/17 10:06:42;;;;;;;3.03;2.40;;;;;;;15.93;29.44;101745.09;8615932;33;20413;-75
2022/04/17 10:11:45;;;;;;;3.90;2.60;;;;;;;15.31;27.80;101726.69;8605814;33;20386;-75
2022/04/17 10:16:51;;;;;;;3.25;2.40;;;;;;;15.14;29.17;101712.63;8611094;33;20468;-75
2022/04/17 10:22:00;;;;;;;4.30;3.28;;;;;;;15.30;29.76;101704.13;8613786;33;20415;-75
2022/04/17 10:27:05;;;;;;;3.40;2.70;;;;;;;15.70;28.21;101698.22;8606527;33;20173;-75
2022/04/17 10:32:40;;;;;;;3.85;2.40;;;;;;;16.19;28.41;101688.72;8607778;33;21524;-75
2022/04/17 10:38:22;;;;;;;3.25;2.80;;;;;;;15.97;28.98;101681.53;8604760;33;20422;-76
2022/04/17 10:43:25;;;;;;;3.47;2.60;;;;;;;16.07;28.87;101685.19;8600994;33;20135;-75
2022/04/17 10:48:29;;;;;;;4.57;3.33;;;;;;;15.77;28.92;101674.19;8599887;33;20186;-74
2022/04/17 10:53:32;;;;;;;3.30;2.80;;;;;;;15.99;28.31;101663.31;8602069;33;20470;-73
2022/04/17 10:58:40;;;;;;;5.22;3.47;;;;;;;16.94;27.47;101666.00;8601429;33;20477;-75
2022/04/17 11:03:53;;;;;;;3.63;3.00;;;;;;;17.15;27.57;101656.97;8599355;33;21932;-75
2022/04/17 11:09:04;;;;;;;5.20;3.30;;;;;;;17.31;27.42;101651.91;8598742;33;20199;-76
2022/04/17 11:14:13;;;;;;;3.70;3.28;;;;;;;17.71;27.61;101637.41;8601155;33;20453;-75
2022/04/17 11:19:19;;;;;;;3.83;3.17;;;;;;;18.42;27.12;101641.72;8601062;33;20236;-75
2022/04/17 11:24:23;;;;;;;3.65;3.00;;;;;;;18.86;26.84;101634.78;8601380;33;20443;-75
2022/04/17 11:29:35;;;;;;;3.95;3.20;;;;;;;19.57;25.37;101620.53;8600538;33;20407;-75
2022/04/17 11:34:46;;;;;;;3.70;2.30;;;;;;;19.75;23.41;101617.84;8599896;33;20183;-75
2022/04/17 11:39:50;;;;;;;3.42;2.33;;;;;;;19.68;22.44;101597.66;8600633;33;20502;-74
2022/04/17 11:44:53;;;;;;;2.90;2.58;;;;;;;20.76;23.31;101601.09;8596040;33;20440;-75
2022/04/17 11:49:58;;;;;;;4.30;2.88;;;;;;;21.18;21.34;101592.97;8592379;33;20463;-74
2022/04/17 11:55:02;;;;;;;3.38;2.63;;;;;;;21.28;22.92;101590.09;8592893;33;20338;-74
2022/04/17 12:00:07;;;;;;;3.25;2.15;;;;;;;21.94;21.50;101573.81;8592955;33;20163;-74
2022/04/17 12:05:13;;;;;;;2.83;2.30;;;;;;;22.14;21.56;101556.06;8598370;33;20868;-74
2022/04/17 12:10:17;;;;;;;3.72;2.55;;;;;;;21.73;20.44;101569.69;8601980;33;20597;-74
2022/04/17 12:15:20;;;;;;;3.38;2.95;;;;;;;21.76;21.24;101555.72;8608221;33;20226;-73
2022/04/17 12:20:26;;;;;;;3.28;2.97;;;;;;;21.70;21.25;101550.91;8605589;33;20450;-74
2022/04/17 12:25:29;;;;;;;3.63;2.90;;;;;;;21.62;22.71;101554.47;8606906;33;20169;-74
2022/04/17 12:30:32;;;;;;;3.00;2.80;;;;;;;23.11;20.19;101534.06;8604581;33;20187;-74
2022/04/17 12:35:40;;;;;;;3.42;2.70;;;;;;;22.81;20.88;101539.31;8602358;33;20564;-74
2022/04/17 12:40:45;;;;;;;3.20;2.90;;;;;;;23.22;20.03;101525.44;8601694;33;20967;-74
2022/04/17 12:46:00;;;;;;;4.30;3.22;;;;;;;22.87;21.84;101511.19;8611547;33;20189;-73
2022/04/17 12:51:09;;;;;;;3.75;2.95;;;;;;;22.31;21.44;101505.72;8608072;33;20404;-73
2022/04/17 12:56:12;;;;;;;3.30;2.88;;;;;;;21.45;21.61;101500.81;8604559;33;20244;-74
2022/04/17 13:01:22;;;;;;;3.67;3.20;;;;;;;22.23;21.47;101496.69;8608130;33;20181;-73
2022/04/17 13:06:32;;;;;;;3.78;3.30;;;;;;;21.55;21.01;101493.28;8609364;33;20416;-74
2022/04/17 13:11:36;;;;;;;3.80;3.17;;;;;;;21.91;21.34;101482.03;8606654;33;20197;-73
2022/04/17 13:16:51;;;;;;;4.32;3.40;;;;;;;20.88;22.66;101482.38;8605709;33;20190;-73
2022/04/17 13:21:58;;;;;;;5.35;4.13;;;;;;;21.83;22.48;101469.25;8614924;33;20147;-73
2022/04/17 13:27:01;;;;;;;3.42;3.03;;;;;;;21.47;21.16;101465.09;8619065;33;20404;-74
2022/04/17 13:32:05;;;;;;;3.47;3.00;;;;;;;20.94;21.70;101459.84;8594570;33;20921;-73
2022/04/17 13:42:36;;;;;;;3.75;2.75;;;;;;;21.00;21.66;101447.41;8623923;33;20675;-74
2022/04/17 13:47:40;;;;;;;5.25;3.00;;;;;;;20.79;21.41;101440.53;8626139;33;20234;-74
2022/04/17 13:52:46;;;;;;;3.42;3.13;;;;;;;21.12;21.21;101427.00;8629004;33;20408;-74
2022/04/17 13:57:51;;;;;;;2.97;2.35;;;;;;;21.29;21.08;101424.28;8623982;33;20232;-74
2022/04/17 14:02:54;;;;;;;4.80;2.83;;;;;;;21.66;21.07;101405.44;8620952;33;20198;-74
2022/04/17 14:07:59;;;;;;;3.08;2.60;;;;;;;20.67;20.41;101403.63;8621556;33;20191;-74
2022/04/17 14:13:02;;;;;;;3.03;2.72;;;;;;;20.55;20.91;101396.78;8615784;33;20484;-73
2022/04/17 14:18:05;;;;;;;5.35;3.58;;;;;;;21.18;21.59;101393.53;8607226;33;20398;-74
2022/04/17 14:23:10;;;;;;;3.33;2.50;;;;;;;21.05;20.33;101384.13;8617478;33;20439;-74
2022/04/17 14:28:15;;;;;;;3.35;2.80;;;;;;;21.27;20.21;101377.97;8604384;33;20183;-74
2022/04/17 14:33:18;;;;;;;4.07;3.08;;;;;;;20.99;21.01;101355.56;8603621;33;20235;-73
2022/04/17 14:38:22;;;;;;;4.70;3.45;;;;;;;20.96;21.25;101354.03;8602148;33;20155;-74
2022/04/17 14:43:25;;;;;;;3.80;2.60;;;;;;;21.78;21.21;101345.84;8603396;33;20422;-74
2022/04/17 14:48:28;;;;;;;4.47;3.03;;;;;;;21.54;21.11;101332.19;8601656;33;20505;-73
2022/04/17 14:53:34;;;;;;;3.58;2.58;;;;;;;21.54;22.24;101329.44;8604187;33;20439;-74
2022/04/17 14:58:37;;;;;;;3.95;2.83;;;;;;;21.33;20.65;101319.06;8597728;33;20671;-74
2022/04/17 15:03:42;;;;;;;3.75;2.75;;;;;;;21.50;20.85;101308.94;8600218;33;20582;-74
2022/04/17 15:08:46;;;;;;;3.00;2.70;;;;;;;21.44;20.57;101303.13;8606057;33;20214;-74
2022/04/17 15:13:55;;;;;;;3.97;3.03;;;;;;;21.32;21.27;101299.06;8606186;33;20537;-74
2022/04/17 15:18:59;;;;;;;3.80;2.83;;;;;;;20.71;21.08;101284.91;8604856;33;20407;-74
2022/04/17 15:24:03;;;;;;;3.53;3.05;;;;;;;20.75;21.39;101280.78;8607133;33;20151;-73
2022/04/17 15:29:06;;;;;;;5.60;3.13;;;;;;;20.82;20.23;101269.22;8606889;33;20457;-74
2022/04/17 15:34:10;;;;;;;3.30;2.85;;;;;;;20.89;21.74;101272.94;8606584;33;20917;-73
2022/04/17 15:39:14;;;;;;;3.95;2.90;;;;;;;20.90;20.84;101267.34;8605087;33;20151;-72
2022/04/17 15:49:38;;;;;;;2.90;2.53;;;;;;;20.98;21.09;101261.00;8604666;33;20384;-73
2022/04/17 15:54:42;;;;;;;4.20;2.80;;;;;;;20.94;19.98;101249.56;8602687;33;20512;-72
2022/04/17 15:59:45;;;;;;;2.90;2.42;;;;;;;20.22;20.98;101248.47;8604647;33;20423;-73
2022/04/17 16:04:48;;;;;;;3.40;2.75;;;;;;;19.46;21.65;101242.00;8606949;33;20401;-73
2022/04/17 16:09:53;;;;;;;6.95;2.97;;;;;;;19.95;21.75;101231.34;8597239;33;20405;-73
2022/04/17 16:14:57;;;;;;;3.60;2.50;;;;;;;20.01;21.88;101224.38;8602872;33;20209;-72
2022/04/17 16:20:01;;;;;;;2.60;2.08;;;;;;;19.76;21.44;101223.44;8596776;33;20151;-72
2022/04/17 16:25:07;;;;;;;1.73;1.63;;;;;;;19.81;21.15;101213.75;8597884;33;20622;-72
2022/04/17 16:30:10;;;;;;;2.08;1.92;;;;;;;19.98;21.81;101211.91;8600637;33;20166;-73
2022/04/17 16:35:15;;;;;;;2.63;2.28;;;;;;;19.62;21.80;101203.94;8606464;33;20453;-72
2022/04/17 16:40:21;;;;;;;2.35;1.73;;;;;;;19.33;22.31;101197.97;8599543;33;20668;-72
2022/04/17 16:45:24;;;;;;;3.50;2.40;;;;;;;18.92;22.02;101203.19;8600495;33;20148;-73
2022/04/17 16:50:27;;;;;;;2.50;2.30;;;;;;;18.57;22.69;101200.34;8601070;33;20236;-72
2022/04/17 16:55:31;;;;;;;3.55;2.05;;;;;;;18.53;23.37;101195.34;8603237;33;21370;-72
2022/04/17 17:00:34;;;;;;;3.85;2.20;;;;;;;18.52;22.64;101199.09;8606637;33;20414;-72
2022/04/17 17:05:37;;;;;;;4.15;2.10;;;;;;;18.52;23.16;101183.63;8606253;33;20458;-72
2022/04/17 17:10:42;;;;;;;3.15;2.05;;;;;;;18.13;23.18;101183.97;8617005;33;20569;-72
2022/04/17 17:15:45;;;;;;;1.95;1.65;;;;;;;17.77;23.26;101182.16;8618485;33;21256;-72
2022/04/17 17:20:49;;;;;;;2.40;1.90;;;;;;;17.50;23.06;101183.00;8621520;33;20469;-73
2022/04/17 17:25:55;;;;;;;3.67;2.58;;;;;;;17.63;22.49;101175.38;8621379;33;21224;-73
2022/04/17 17:30:59;;;;;;;3.20;2.55;;;;;;;17.32;23.07;101180.25;8624243;33;20212;-72
2022/04/17 17:36:05;;;;;;;14.35;7.65;;;;;;;16.71;23.67;101170.69;8627050;33;20624;-72
2022/04/17 17:41:10;;;;;;;24.25;13.45;;;;;;;16.29;24.44;101180.00;8618976;33;20400;-72
2022/04/17 17:46:15;;;;;;;6.22;4.68;;;;;;;15.69;25.19;101177.31;8617278;33;20148;-72
2022/04/17 17:51:19;;;;;;;3.33;3.00;;;;;;;15.10;24.67;101177.19;8616828;33;21956;-73
2022/04/17 17:56:23;;;;;;;5.90;3.00;;;;;;;14.72;25.68;101179.50;8607238;33;20269;-73
2022/04/17 18:01:26;;;;;;;4.40;3.22;;;;;;;14.06;26.39;101185.06;8603556;33;20462;-72
2022/04/17 18:06:29;;;;;;;4.05;3.55;;;;;;;13.88;26.97;101175.81;8605533;33;20420;-72
2022/04/17 18:16:54;;;;;;;5.05;4.07;;;;;;;13.38;27.92;101187.03;8614610;33;20206;-73
2022/04/17 18:27:16;;;;;;;5.40;4.88;;;;;;;13.04;28.40;101186.97;8600930;33;21517;-73
2022/04/17 18:32:19;;;;;;;7.18;6.30;;;;;;;12.91;28.90;101191.63;8602080;33;20456;-72
2022/04/17 18:37:28;;;;;;;8.32;6.38;;;;;;;12.79;29.09;101193.44;8603612;33;20218;-74
2022/04/17 18:42:33;;;;;;;8.27;6.20;;;;;;;12.52;29.46;101191.03;8607344;33;20562;-74
2022/04/17 18:47:36;;;;;;;6.80;4.60;;;;;;;12.49;29.14;101193.97;8608117;33;20461;-74
2022/04/17 18:52:39;;;;;;;7.00;4.88;;;;;;;12.42;29.77;101192.72;8607236;33;20452;-75
2022/04/17 18:57:45;;;;;;;6.57;5.35;;;;;;;12.25;30.13;101193.09;8606925;33;20428;-75
2022/04/17 19:02:48;;;;;;;7.22;6.00;;;;;;;12.16;30.29;101190.13;8607633;33;20269;-75
2022/04/17 19:07:52;;;;;;;8.15;6.28;;;;;;;12.10;30.09;101189.75;8607646;33;21558;-74
2022/04/17 19:18:16;;;;;;;12.20;9.38;;;;;;;11.94;30.50;101195.41;8609584;33;20986;-75
2022/04/17 19:23:19;;;;;;;10.57;8.45;;;;;;;11.82;30.93;101201.66;8607141;33;20468;-74
2022/04/17 19:28:24;;;;;;;8.60;7.75;;;;;;;11.63;31.66;101192.28;8603922;33;22616;-75
2022/04/17 19:38:47;;;;;;;12.27;8.75;;;;;;;11.48;30.70;101185.31;8605819;33;20244;-75
2022/04/17 19:43:52;;;;;;;15.90;9.23;;;;;;;11.32;31.05;101188.22;8617402;33;20857;-75
2022/04/17 19:48:55;;;;;;;11.23;7.32;;;;;;;11.21;31.14;101182.75;8610714;33;20202;-75
2022/04/17 19:53:58;;;;;;;11.50;6.72;;;;;;;11.10;31.18;101170.03;8611274;33;20210;-74
2022/04/17 19:59:07;;;;;;;9.00;6.90;;;;;;;11.05;31.34;101164.13;8610973;33;20668;-75
2022/04/17 20:04:10;;;;;;;10.68;6.97;;;;;;;11.02;31.74;101164.34;8612138;33;20414;-75
2022/04/17 20:09:13;;;;;;;7.30;6.00;;;;;;;10.95;31.84;101161.25;8613541;33;20425;-74
2022/04/17 20:14:19;;;;;;;7.85;5.93;;;;;;;10.83;32.49;101151.31;8613370;33;20430;-75
2022/04/17 20:19:22;;;;;;;10.70;7.68;;;;;;;10.72;32.70;101149.38;8610776;33;20127;-75
2022/04/17 20:24:30;;;;;;;14.35;9.07;;;;;;;10.62;33.34;101156.41;8603021;33;20189;-75
2022/04/17 20:29:35;;;;;;;15.40;11.38;;;;;;;10.38;34.29;101156.25;8605511;33;20225;-75
2022/04/17 20:34:38;;;;;;;15.98;11.30;;;;;;;10.25;34.45;101155.34;8603306;33;20143;-74
2022/04/17 20:39:41;;;;;;;17.27;11.20;;;;;;;10.12;34.63;101150.81;8602874;33;20812;-75
2022/04/17 20:55:27;;;;;;;23.10;14.70;;;;;;;9.87;35.23;101146.22;8603309;33;20471;-75
2022/04/17 21:00:32;;;;;;;24.80;14.98;;;;;;;9.77;35.45;101137.03;8604600;33;20425;-74
2022/04/17 21:05:35;;;;;;;25.48;15.05;;;;;;;9.67;35.62;101141.25;8608084;33;20641;-74
2022/04/17 21:10:43;;;;;;;20.65;12.98;;;;;;;9.62;35.54;101135.31;8608946;33;20151;-75
2022/04/17 21:15:48;;;;;;;21.27;12.90;;;;;;;9.58;35.45;101131.13;8611311;33;22367;-75
2022/04/17 21:20:51;;;;;;;15.07;11.90;;;;;;;9.48;36.27;101131.72;8611881;33;20640;-74
2022/04/17 21:25:54;;;;;;;15.02;10.32;;;;;;;9.33;36.58;101134.53;8609746;33;20474;-75
2022/04/17 21:30:58;;;;;;;14.80;10.30;;;;;;;9.27;36.71;101136.66;8609223;33;20436;-74
2022/04/17 21:36:02;;;;;;;14.10;9.60;;;;;;;9.15;37.13;101145.47;8585871;33;20123;-74
2022/04/17 21:41:05;;;;;;;11.82;9.38;;;;;;;9.03;37.05;101133.69;8609965;33;20389;-75
2022/04/17 21:46:09;;;;;;;10.75;9.60;;;;;;;8.93;37.28;101127.19;8607045;33;20213;-75
2022/04/17 21:51:12;;;;;;;11.43;8.57;;;;;;;8.89;37.53;101131.03;8606693;33;20436;-74
2022/04/17 21:56:15;;;;;;;16.83;9.23;;;;;;;8.79;37.56;101130.72;8582831;33;20860;-75
2022/04/17 22:06:40;;;;;;;10.43;7.65;;;;;;;8.63;37.96;101121.03;8606850;33;20449;-74
2022/04/17 22:11:44;;;;;;;11.43;8.20;;;;;;;8.48;38.31;101114.81;8621093;33;20287;-74
2022/04/17 22:16:49;;;;;;;11.55;8.05;;;;;;;8.48;38.14;101107.63;8619455;33;20405;-74
2022/04/17 22:21:52;;;;;;;15.02;9.50;;;;;;;8.52;38.24;101111.84;8607783;33;20187;-75
2022/04/17 22:26:57;;;;;;;12.65;8.70;;;;;;;8.54;38.34;101104.59;8605517;33;20151;-74
2022/04/17 22:32:01;;;;;;;13.90;9.48;;;;;;;8.42;38.50;101105.31;8600749;33;20151;-74
2022/04/17 22:37:05;;;;;;;12.98;9.18;;;;;;;8.31;39.29;101107.75;8597587;33;20178;-74
2022/04/17 22:42:08;;;;;;;13.57;8.63;;;;;;;8.28;39.14;101103.47;8600619;33;20268;-74
2022/04/17 22:47:12;;;;;;;13.20;8.35;;;;;;;8.32;38.34;101106.81;8600622;33;20187;-74
2022/04/17 22:52:15;;;;;;;20.45;10.40;;;;;;;8.26;38.88;101102.69;8601325;33;20460;-74
2022/04/17 22:57:18;;;;;;;15.65;9.55;;;;;;;8.21;38.98;101095.91;8604419;33;20435;-73
2022/04/17 23:02:23;;;;;;;16.58;10.10;;;;;;;8.21;39.19;101101.25;8602164;33;20429;-75
2022/04/17 23:07:26;;;;;;;18.50;9.98;;;;;;;8.28;39.13;101095.44;8599223;33;20143;-73
2022/04/17 23:12:29;;;;;;;14.73;8.88;;;;;;;8.21;39.03;101091.41;8598052;33;20527;-74
2022/04/17 23:17:35;;;;;;;14.93;9.32;;;;;;;8.16;39.33;101083.63;8600332;33;20401;-73
2022/04/17 23:22:38;;;;;;;13.63;8.40;;;;;;;8.18;39.43;101083.56;8599471;33;20128;-74
2022/04/17 23:27:41;;;;;;;11.15;8.13;;;;;;;8.06;40.22;101085.13;8604631;33;20132;-74
2022/04/17 23:32:45;;;;;;;10.98;8.23;;;;;;;7.88;41.03;101078.22;8602104;33;20818;-74
2022/04/17 23:37:48;;;;;;;14.60;8.27;;;;;;;7.91;41.22;101081.56;8601691;33;20938;-73
2022/04/17 23:42:51;;;;;;;16.02;9.23;;;;;;;7.89;41.64;101079.91;8601662;33;21087;-73
2022/04/17 23:47:56;;;;;;;12.82;8.73;;;;;;;7.86;41.85;101066.72;8600977;33;21226;-73
2022/04/17 23:52:59;;;;;;;12.10;9.75;;;;;;;7.85;42.36;101065.00;8605789;33;20143;-74
2022/04/17 23:58:02;;;;;;;12.25;8.95;;;;;;;7.61;43.15;101056.59;8604890;33;20209;-74
